createdAt,value
2022-08-12T00:00:48.972Z,15.14
2022-08-12T00:02:03.610Z,15.09
2022-08-12T00:02:49.997Z,15.00
2022-08-12T00:03:48.923Z,14.97
2022-08-12T00:04:49.925Z,15.09
2022-08-12T00:06:00.452Z,15.02
2022-08-12T00:06:49.932Z,15.06
2022-08-12T00:07:48.895Z,15.06
2022-08-12T00:08:48.883Z,15.06
2022-08-12T00:09:49.371Z,15.19
2022-08-12T00:10:48.870Z,15.15
2022-08-12T00:11:49.090Z,15.12
2022-08-12T00:12:49.084Z,15.15
2022-08-12T00:13:49.066Z,15.18
2022-08-12T00:14:49.097Z,15.22
2022-08-12T00:15:49.004Z,15.21
2022-08-12T00:16:49.112Z,15.11
2022-08-12T00:17:49.019Z,15.14
2022-08-12T00:18:49.024Z,15.03
2022-08-12T00:19:48.966Z,15.03
2022-08-12T00:20:49.035Z,15.09
2022-08-12T00:21:48.802Z,15.06
2022-08-12T00:22:58.804Z,15.06
2022-08-12T00:23:49.758Z,14.95
2022-08-12T00:24:48.771Z,14.89
2022-08-12T00:26:18.992Z,14.91
2022-08-12T00:26:49.757Z,14.95
2022-08-12T00:27:48.729Z,14.97
2022-08-12T00:28:48.715Z,14.99
2022-08-12T00:29:49.706Z,14.97
2022-08-12T00:30:48.699Z,14.96
2022-08-12T00:31:48.728Z,14.85
2022-08-12T00:32:54.919Z,14.78
2022-08-12T00:33:52.483Z,14.81
2022-08-12T00:34:49.485Z,14.91
2022-08-12T00:35:48.646Z,14.95
2022-08-12T00:36:50.151Z,14.88
2022-08-12T00:37:48.661Z,14.89
2022-08-12T00:38:48.642Z,14.95
2022-08-12T00:39:48.733Z,14.95
2022-08-12T00:40:48.603Z,14.93
2022-08-12T00:41:48.641Z,14.85
2022-08-12T00:42:48.591Z,14.81
2022-08-12T00:43:48.586Z,14.69
2022-08-12T00:44:48.586Z,14.73
2022-08-12T00:45:48.575Z,14.66
2022-08-12T00:47:25.024Z,14.68
2022-08-12T00:47:49.553Z,14.68
2022-08-12T00:48:48.548Z,14.55
2022-08-12T00:49:50.368Z,14.56
2022-08-12T00:50:48.531Z,14.43
2022-08-12T00:51:48.523Z,14.58
2022-08-12T00:52:48.540Z,14.43
2022-08-12T00:53:48.496Z,14.44
2022-08-12T00:54:48.493Z,14.41
2022-08-12T00:55:48.489Z,14.29
2022-08-12T00:56:48.466Z,14.26
2022-08-12T00:57:48.529Z,14.30
2022-08-12T00:58:48.458Z,14.30
2022-08-12T00:59:48.450Z,14.30
2022-08-12T01:00:48.454Z,14.26
2022-08-12T01:02:00.974Z,14.29
2022-08-12T01:02:49.457Z,14.30
2022-08-12T01:03:48.420Z,14.23
2022-08-12T01:04:48.403Z,14.20
2022-08-12T01:05:48.409Z,14.23
2022-08-12T01:06:50.918Z,14.23
2022-08-12T01:07:49.409Z,14.20
2022-08-12T01:08:48.365Z,14.22
2022-08-12T01:09:48.368Z,14.19
2022-08-12T01:10:48.357Z,14.25
2022-08-12T01:11:48.341Z,14.14
2022-08-12T01:12:48.359Z,14.18
2022-08-12T01:13:48.332Z,14.11
2022-08-12T01:14:48.322Z,14.15
2022-08-12T01:15:48.316Z,14.07
2022-08-12T01:16:48.302Z,14.18
2022-08-12T01:17:48.321Z,14.07
2022-08-12T01:18:48.287Z,14.07
2022-08-12T01:19:49.270Z,14.18
2022-08-12T01:20:48.276Z,14.15
2022-08-12T01:21:48.285Z,14.18
2022-08-12T01:22:48.279Z,14.15
2022-08-12T01:23:48.251Z,14.10
2022-08-12T01:24:48.252Z,14.13
2022-08-12T01:25:56.146Z,14.05
2022-08-12T01:26:49.222Z,14.10
2022-08-12T01:27:48.253Z,13.97
2022-08-12T01:28:48.206Z,14.03
2022-08-12T01:29:48.200Z,13.93
2022-08-12T01:30:48.195Z,13.90
2022-08-12T01:31:48.179Z,13.96
2022-08-12T01:32:48.543Z,13.88
2022-08-12T01:33:48.165Z,13.90
2022-08-12T01:34:48.155Z,13.96
2022-08-12T01:35:57.873Z,13.93
2022-08-12T01:36:49.134Z,13.90
2022-08-12T01:37:48.127Z,13.90
2022-08-12T01:38:48.154Z,13.88
2022-08-12T01:40:34.914Z,13.83
2022-08-12T01:40:49.222Z,13.83
2022-08-12T01:41:53.576Z,13.72
2022-08-12T01:42:49.088Z,13.71
2022-08-12T01:43:48.113Z,13.72
2022-08-12T01:44:48.075Z,13.78
2022-08-12T01:45:48.065Z,13.72
2022-08-12T01:46:48.141Z,13.77
2022-08-12T01:47:48.050Z,13.67
2022-08-12T01:48:48.062Z,13.68
2022-08-12T01:49:48.031Z,13.59
2022-08-12T01:50:48.021Z,13.65
2022-08-12T01:52:21.551Z,13.53
2022-08-12T01:52:49.000Z,13.59
2022-08-12T01:53:48.728Z,13.57
2022-08-12T01:54:47.989Z,13.49
2022-08-12T01:55:47.976Z,13.50
2022-08-12T01:56:47.963Z,13.52
2022-08-12T01:57:59.656Z,13.53
2022-08-12T01:58:48.987Z,13.50
2022-08-12T01:59:47.941Z,13.45
2022-08-12T02:00:54.960Z,13.33
2022-08-12T02:01:48.999Z,13.35
2022-08-12T02:02:47.920Z,13.38
2022-08-12T02:03:47.936Z,13.41
2022-08-12T02:04:47.896Z,13.35
2022-08-12T02:05:47.885Z,13.31
2022-08-12T02:06:47.884Z,13.26
2022-08-12T02:07:47.870Z,13.26
2022-08-12T02:08:47.897Z,13.31
2022-08-12T02:09:47.859Z,13.31
2022-08-12T02:10:49.958Z,13.30
2022-08-12T02:11:47.839Z,13.33
2022-08-12T02:12:47.870Z,13.31
2022-08-12T02:13:49.321Z,13.39
2022-08-12T02:14:47.818Z,13.43
2022-08-12T02:15:47.807Z,13.35
2022-08-12T02:16:47.801Z,13.33
2022-08-12T02:17:56.286Z,13.33
2022-08-12T02:18:48.811Z,13.24
2022-08-12T02:19:47.784Z,13.31
2022-08-12T02:20:52.462Z,13.27
2022-08-12T02:21:48.767Z,13.30
2022-08-12T02:22:47.769Z,13.29
2022-08-12T02:23:47.769Z,13.18
2022-08-12T02:24:47.729Z,13.30
2022-08-12T02:25:47.725Z,13.22
2022-08-12T02:26:47.717Z,13.22
2022-08-12T02:27:47.720Z,13.19
2022-08-12T02:28:47.724Z,13.15
2022-08-12T02:29:47.684Z,13.16
2022-08-12T02:30:47.675Z,13.11
2022-08-12T02:31:47.727Z,13.13
2022-08-12T02:32:47.694Z,13.15
2022-08-12T02:33:47.767Z,13.09
2022-08-12T02:34:47.656Z,13.06
2022-08-12T02:35:47.680Z,13.05
2022-08-12T02:36:47.648Z,13.06
2022-08-12T02:37:47.675Z,13.06
2022-08-12T02:38:47.644Z,13.11
2022-08-12T02:39:47.641Z,13.06
2022-08-12T02:40:47.585Z,13.08
2022-08-12T02:41:47.585Z,13.03
2022-08-12T02:42:47.638Z,13.05
2022-08-12T02:43:47.594Z,13.08
2022-08-12T02:44:47.571Z,12.97
2022-08-12T02:45:47.561Z,12.96
2022-08-12T02:46:47.540Z,12.93
2022-08-12T02:47:57.143Z,12.94
2022-08-12T02:48:48.550Z,12.90
2022-08-12T02:49:47.568Z,12.96
2022-08-12T02:50:47.528Z,12.88
2022-08-12T02:51:47.526Z,12.88
2022-08-12T02:52:47.490Z,12.87
2022-08-12T02:54:03.320Z,12.88
2022-08-12T02:54:48.505Z,12.82
2022-08-12T02:55:47.473Z,12.83
2022-08-12T02:56:50.770Z,12.72
2022-08-12T02:57:47.454Z,12.69
2022-08-12T02:58:47.479Z,12.69
2022-08-12T02:59:47.431Z,12.75
2022-08-12T03:00:47.530Z,12.72
2022-08-12T03:01:47.602Z,12.71
2022-08-12T03:02:47.402Z,12.65
2022-08-12T03:03:47.420Z,12.76
2022-08-12T03:04:47.393Z,12.71
2022-08-12T03:05:47.385Z,12.65
2022-08-12T03:06:47.390Z,12.68
2022-08-12T03:07:59.840Z,12.71
2022-08-12T03:08:51.832Z,12.69
2022-08-12T03:10:05.348Z,12.64
2022-08-12T03:10:48.411Z,12.71
2022-08-12T03:11:48.955Z,12.69
2022-08-12T03:12:49.318Z,12.68
2022-08-12T03:13:47.346Z,12.65
2022-08-12T03:14:47.317Z,12.79
2022-08-12T03:15:47.304Z,12.69
2022-08-12T03:16:47.284Z,12.64
2022-08-12T03:17:47.306Z,12.54
2022-08-12T03:18:48.325Z,12.63
2022-08-12T03:20:08.814Z,12.68
2022-08-12T03:20:48.257Z,12.55
2022-08-12T03:21:54.703Z,12.64
2022-08-12T03:22:48.260Z,12.68
2022-08-12T03:23:47.325Z,12.60
2022-08-12T03:24:47.225Z,12.60
2022-08-12T03:25:47.229Z,12.55
2022-08-12T03:26:47.204Z,12.61
2022-08-12T03:27:47.230Z,12.57
2022-08-12T03:28:47.320Z,12.57
2022-08-12T03:29:50.035Z,12.51
2022-08-12T03:30:47.177Z,12.73
2022-08-12T03:31:47.164Z,12.76
2022-08-12T03:32:47.406Z,12.72
2022-08-12T03:34:02.385Z,12.69
2022-08-12T03:34:48.182Z,12.65
2022-08-12T03:35:47.154Z,12.65
2022-08-12T03:36:47.167Z,12.63
2022-08-12T03:37:47.100Z,12.60
2022-08-12T03:38:47.190Z,12.57
2022-08-12T03:39:47.219Z,12.58
2022-08-12T03:40:47.111Z,12.53
2022-08-12T03:41:47.099Z,12.51
2022-08-12T03:42:47.088Z,12.32
2022-08-12T03:43:47.095Z,12.45
2022-08-12T03:44:47.135Z,12.39
2022-08-12T03:45:52.338Z,12.39
2022-08-12T03:46:48.055Z,12.39
2022-08-12T03:47:47.035Z,12.36
2022-08-12T03:48:47.032Z,12.36
2022-08-12T03:49:47.052Z,12.38
2022-08-12T03:50:47.057Z,12.30
2022-08-12T03:51:46.993Z,12.39
2022-08-12T03:52:46.979Z,12.32
2022-08-12T03:53:46.997Z,12.38
2022-08-12T03:54:47.053Z,12.32
2022-08-12T03:55:46.956Z,12.27
2022-08-12T03:56:46.938Z,12.25
2022-08-12T03:57:48.566Z,12.27
2022-08-12T03:58:46.925Z,12.22
2022-08-12T03:59:46.951Z,12.17
2022-08-12T04:00:47.010Z,12.21
2022-08-12T04:01:46.895Z,12.22
2022-08-12T04:02:47.896Z,12.20
2022-08-12T04:03:46.888Z,12.18
2022-08-12T04:04:46.910Z,12.22
2022-08-12T04:05:54.698Z,12.18
2022-08-12T04:06:47.863Z,12.24
2022-08-12T04:07:56.340Z,12.36
2022-08-12T04:08:47.847Z,12.40
2022-08-12T04:09:46.859Z,12.42
2022-08-12T04:10:46.832Z,12.43
2022-08-12T04:11:47.281Z,12.47
2022-08-12T04:12:46.813Z,12.45
2022-08-12T04:13:46.800Z,12.53
2022-08-12T04:14:46.823Z,12.38
2022-08-12T04:15:46.780Z,12.39
2022-08-12T04:16:46.776Z,12.42
2022-08-12T04:18:07.329Z,12.40
2022-08-12T04:18:47.760Z,12.39
2022-08-12T04:19:46.779Z,12.51
2022-08-12T04:20:46.740Z,12.54
2022-08-12T04:22:02.180Z,12.63
2022-08-12T04:22:47.716Z,12.78
2022-08-12T04:23:48.681Z,12.88
2022-08-12T04:24:50.530Z,13.03
2022-08-12T04:25:46.701Z,13.16
2022-08-12T04:26:46.689Z,13.18
2022-08-12T04:27:46.690Z,13.38
2022-08-12T04:28:46.685Z,13.55
2022-08-12T04:30:21.193Z,13.78
2022-08-12T04:30:47.656Z,13.82
2022-08-12T04:31:46.654Z,13.90
2022-08-12T04:32:46.813Z,13.97
2022-08-12T04:33:47.634Z,14.23
2022-08-12T04:34:46.648Z,14.44
2022-08-12T04:35:46.619Z,14.63
2022-08-12T04:36:46.611Z,14.74
2022-08-12T04:37:58.094Z,14.84
2022-08-12T04:38:47.582Z,14.81
2022-08-12T04:39:46.665Z,14.79
2022-08-12T04:40:46.573Z,14.85
2022-08-12T04:41:56.067Z,15.09
2022-08-12T04:42:47.554Z,15.25
2022-08-12T04:44:00.206Z,15.30
2022-08-12T04:44:47.594Z,15.21
2022-08-12T04:45:46.531Z,15.44
2022-08-12T04:46:46.514Z,15.83
2022-08-12T04:47:46.516Z,15.87
2022-08-12T04:48:46.514Z,15.70
2022-08-12T04:49:46.530Z,15.88
2022-08-12T04:50:46.491Z,16.02
2022-08-12T04:51:57.597Z,16.16
2022-08-12T04:52:47.467Z,16.32
2022-08-12T04:53:46.463Z,16.56
2022-08-12T04:54:46.486Z,16.90
2022-08-12T04:55:46.459Z,17.01
2022-08-12T04:57:04.887Z,16.84
2022-08-12T04:57:47.440Z,17.11
2022-08-12T04:58:50.628Z,17.01
2022-08-12T04:59:49.051Z,16.76
2022-08-12T05:00:46.423Z,16.93
2022-08-12T05:01:46.393Z,16.94
2022-08-12T05:02:46.460Z,17.06
2022-08-12T05:03:48.348Z,16.82
2022-08-12T05:04:46.427Z,16.84
2022-08-12T05:05:46.380Z,16.80
2022-08-12T05:06:46.366Z,17.16
2022-08-12T05:07:53.845Z,17.30
2022-08-12T05:08:47.332Z,17.75
2022-08-12T05:10:00.204Z,17.70
2022-08-12T05:10:47.337Z,17.70
2022-08-12T05:11:53.727Z,17.97
2022-08-12T05:12:47.383Z,17.94
2022-08-12T05:13:46.305Z,18.01
2022-08-12T05:14:46.337Z,17.85
2022-08-12T05:16:05.178Z,17.83
2022-08-12T05:16:48.278Z,17.93
2022-08-12T05:17:46.263Z,18.00
2022-08-12T05:18:46.253Z,18.41
2022-08-12T05:19:46.271Z,18.77
2022-08-12T05:20:46.234Z,18.88
2022-08-12T05:21:46.239Z,18.71
2022-08-12T05:22:46.220Z,19.08
2022-08-12T05:23:46.222Z,19.39
2022-08-12T05:24:46.234Z,19.48
2022-08-12T05:25:46.195Z,19.55
2022-08-12T05:26:46.185Z,19.81
2022-08-12T05:27:55.505Z,19.76
2022-08-12T05:28:47.165Z,19.66
2022-08-12T05:30:07.198Z,19.69
2022-08-12T05:30:47.149Z,19.37
2022-08-12T05:31:48.381Z,19.19
2022-08-12T05:32:46.137Z,18.96
2022-08-12T05:33:46.127Z,19.09
2022-08-12T05:34:46.152Z,19.14
2022-08-12T05:35:46.115Z,19.19
2022-08-12T05:36:46.106Z,19.44
2022-08-12T05:37:46.099Z,19.56
2022-08-12T05:38:46.097Z,19.74
2022-08-12T05:39:46.130Z,19.70
2022-08-12T05:40:46.068Z,19.84
2022-08-12T05:41:46.056Z,19.86
2022-08-12T05:42:46.399Z,19.82
2022-08-12T05:43:46.050Z,19.74
2022-08-12T05:44:46.067Z,19.89
2022-08-12T05:45:46.023Z,20.10
2022-08-12T05:46:46.020Z,20.01
2022-08-12T05:47:53.599Z,20.11
2022-08-12T05:48:46.999Z,20.36
2022-08-12T05:49:46.025Z,20.92
2022-08-12T05:50:45.986Z,21.08
2022-08-12T05:51:45.973Z,21.06
2022-08-12T05:52:45.964Z,21.08
2022-08-12T05:53:45.958Z,21.32
2022-08-12T05:54:56.968Z,21.58
2022-08-12T05:55:47.944Z,21.69
2022-08-12T05:56:45.933Z,22.04
2022-08-12T05:57:45.958Z,21.89
2022-08-12T05:58:45.930Z,21.67
2022-08-12T05:59:45.913Z,21.20
2022-08-12T06:00:45.940Z,21.11
2022-08-12T06:02:11.291Z,21.36
2022-08-12T06:02:46.955Z,21.85
2022-08-12T06:03:45.879Z,22.19
2022-08-12T06:04:45.881Z,21.72
2022-08-12T06:05:55.022Z,21.67
2022-08-12T06:06:46.848Z,21.69
2022-08-12T06:08:00.549Z,21.72
2022-08-12T06:08:46.833Z,22.08
2022-08-12T06:09:45.832Z,22.66
2022-08-12T06:10:45.842Z,23.17
2022-08-12T06:12:04.739Z,23.14
2022-08-12T06:12:46.790Z,22.65
2022-08-12T06:13:53.213Z,22.95
2022-08-12T06:14:46.787Z,23.25
2022-08-12T06:15:45.804Z,23.52
2022-08-12T06:16:45.771Z,23.13
2022-08-12T06:17:45.849Z,22.91
2022-08-12T06:18:45.745Z,22.81
2022-08-12T06:20:27.306Z,22.98
2022-08-12T06:20:46.775Z,22.98
2022-08-12T06:21:45.717Z,23.27
2022-08-12T06:22:45.708Z,23.21
2022-08-12T06:23:45.700Z,23.22
2022-08-12T06:24:45.704Z,23.31
2022-08-12T06:25:45.723Z,23.70
2022-08-12T06:26:45.682Z,23.71
2022-08-12T06:28:06.723Z,23.88
2022-08-12T06:28:46.659Z,24.29
2022-08-12T06:30:09.585Z,24.70
2022-08-12T06:31:08.189Z,24.50
2022-08-12T06:31:47.654Z,24.73
2022-08-12T06:33:04.354Z,24.60
2022-08-12T06:33:55.333Z,24.39
2022-08-12T06:35:25.358Z,24.74
2022-08-12T06:35:49.301Z,24.77
2022-08-12T06:36:45.598Z,24.73
2022-08-12T06:37:45.589Z,24.23
2022-08-12T06:38:46.577Z,24.37
2022-08-12T06:39:45.648Z,24.51
2022-08-12T06:40:45.597Z,24.91
2022-08-12T06:42:05.204Z,24.86
2022-08-12T06:42:46.940Z,24.62
2022-08-12T06:44:05.889Z,24.43
2022-08-12T06:44:46.537Z,24.63
2022-08-12T06:45:46.812Z,25.22
2022-08-12T06:46:45.514Z,25.44
2022-08-12T06:47:45.509Z,25.75
2022-08-12T06:48:45.497Z,26.03
2022-08-12T06:49:45.496Z,25.93
2022-08-12T06:50:45.778Z,26.26
2022-08-12T06:51:56.661Z,26.74
2022-08-12T06:52:46.584Z,27.09
2022-08-12T06:53:45.681Z,27.14
2022-08-12T06:54:45.457Z,26.85
2022-08-12T06:55:58.294Z,27.02
2022-08-12T06:57:03.454Z,26.87
2022-08-12T06:58:08.248Z,26.89
2022-08-12T06:58:46.417Z,26.43
2022-08-12T06:59:45.418Z,26.52
2022-08-12T07:00:45.461Z,26.71
2022-08-12T07:01:51.097Z,26.59
2022-08-12T07:02:46.380Z,26.62
2022-08-12T07:03:45.382Z,26.38
2022-08-12T07:04:45.380Z,26.56
2022-08-12T07:05:45.364Z,26.45
2022-08-12T07:06:45.389Z,26.60
2022-08-12T07:07:45.341Z,27.07
2022-08-12T07:08:45.350Z,26.95
2022-08-12T07:10:06.705Z,27.30
2022-08-12T07:10:46.327Z,27.70
2022-08-12T07:11:47.283Z,27.93
2022-08-12T07:12:46.325Z,27.83
2022-08-12T07:14:12.457Z,27.98
2022-08-12T07:14:48.925Z,28.02
2022-08-12T07:15:46.284Z,27.85
2022-08-12T07:16:45.301Z,27.89
2022-08-12T07:17:45.271Z,28.16
2022-08-12T07:18:45.264Z,28.54
2022-08-12T07:19:45.617Z,28.53
2022-08-12T07:20:53.345Z,29.14
2022-08-12T07:21:59.981Z,29.29
2022-08-12T07:22:46.229Z,29.57
2022-08-12T07:23:45.220Z,29.90
2022-08-12T07:24:45.212Z,30.16
2022-08-12T07:25:45.217Z,30.25
2022-08-12T07:26:45.217Z,30.50
2022-08-12T07:27:45.233Z,31.30
2022-08-12T07:28:45.174Z,31.52
2022-08-12T07:30:03.862Z,31.34
2022-08-12T07:30:46.158Z,31.43
2022-08-12T07:31:45.201Z,31.14
2022-08-12T07:32:45.149Z,31.77
2022-08-12T07:33:45.136Z,32.13
2022-08-12T07:34:45.141Z,32.13
2022-08-12T07:35:45.106Z,32.31
2022-08-12T07:36:45.138Z,32.38
2022-08-12T07:37:45.106Z,32.43
2022-08-12T07:38:45.093Z,32.38
2022-08-12T07:39:50.719Z,32.35
2022-08-12T07:40:46.078Z,32.38
2022-08-12T07:41:45.101Z,32.25
2022-08-12T07:42:45.061Z,31.06
2022-08-12T07:43:45.055Z,31.04
2022-08-12T07:44:45.042Z,31.38
2022-08-12T07:45:45.043Z,31.96
2022-08-12T07:46:45.064Z,31.78
2022-08-12T07:47:45.024Z,31.75
2022-08-12T07:48:45.017Z,32.05
2022-08-12T07:50:04.558Z,31.43
2022-08-12T07:50:46.000Z,31.75
2022-08-12T07:51:45.027Z,30.93
2022-08-12T07:52:44.981Z,30.96
2022-08-12T07:54:00.203Z,31.18
2022-08-12T07:54:45.985Z,31.62
2022-08-12T07:55:44.954Z,31.89
2022-08-12T07:56:44.985Z,31.09
2022-08-12T07:57:44.947Z,30.74
2022-08-12T07:58:47.154Z,31.36
2022-08-12T07:59:45.938Z,31.63
2022-08-12T08:00:44.918Z,31.71
2022-08-12T08:01:45.004Z,31.74
2022-08-12T08:02:44.910Z,32.34
2022-08-12T08:03:47.551Z,33.05
2022-08-12T08:04:44.904Z,33.39
2022-08-12T08:05:44.894Z,32.96
2022-08-12T08:06:44.907Z,32.79
2022-08-12T08:07:44.869Z,33.46
2022-08-12T08:08:44.872Z,33.31
2022-08-12T08:09:44.858Z,32.98
2022-08-12T08:10:44.861Z,32.15
2022-08-12T08:11:44.882Z,32.49
2022-08-12T08:12:44.845Z,32.35
2022-08-12T08:13:44.828Z,32.31
2022-08-12T08:14:44.822Z,32.37
2022-08-12T08:16:02.412Z,31.07
2022-08-12T08:16:46.852Z,31.96
2022-08-12T08:17:44.802Z,32.52
2022-08-12T08:18:44.809Z,32.20
2022-08-12T08:20:03.586Z,32.00
2022-08-12T08:20:45.788Z,32.52
2022-08-12T08:21:44.813Z,32.79
2022-08-12T08:22:44.864Z,33.46
2022-08-12T08:23:46.165Z,33.55
2022-08-12T08:24:44.755Z,33.80
2022-08-12T08:25:44.746Z,32.25
2022-08-12T08:26:44.757Z,32.71
2022-08-12T08:27:44.776Z,33.11
2022-08-12T08:28:44.726Z,33.76
2022-08-12T08:29:44.725Z,33.83
2022-08-12T08:30:44.737Z,33.44
2022-08-12T08:31:45.552Z,33.62
2022-08-12T08:32:45.720Z,33.78
2022-08-12T08:34:05.227Z,34.00
2022-08-12T08:34:54.228Z,33.61
2022-08-12T08:35:47.769Z,33.55
2022-08-12T08:36:44.722Z,33.08
2022-08-12T08:37:44.687Z,32.89
2022-08-12T08:38:44.648Z,33.14
2022-08-12T08:39:45.652Z,33.66
2022-08-12T08:40:44.634Z,34.10
2022-08-12T08:42:19.111Z,33.92
2022-08-12T08:42:50.806Z,34.39
2022-08-12T08:43:46.662Z,35.11
2022-08-12T08:44:44.615Z,35.27
2022-08-12T08:45:44.607Z,35.02
2022-08-12T08:46:44.708Z,34.18
2022-08-12T08:47:44.626Z,34.21
2022-08-12T08:48:44.584Z,34.14
2022-08-12T08:49:44.574Z,34.84
2022-08-12T08:50:44.574Z,35.55
2022-08-12T08:51:44.580Z,35.46
2022-08-12T08:52:44.587Z,35.48
2022-08-12T08:53:44.585Z,33.50
2022-08-12T08:54:45.540Z,32.90
2022-08-12T08:56:04.131Z,32.80
2022-08-12T08:56:46.621Z,32.42
2022-08-12T08:57:44.860Z,32.86
2022-08-12T08:58:45.507Z,32.61
2022-08-12T08:59:45.507Z,32.30
2022-08-12T09:00:49.434Z,31.56
2022-08-12T09:01:44.765Z,31.02
2022-08-12T09:02:49.196Z,31.53
2022-08-12T09:05:07.306Z,31.40
2022-08-12T09:05:13.906Z,31.34
2022-08-12T09:06:02.650Z,31.41
2022-08-12T09:06:53.819Z,31.77
2022-08-12T09:07:58.946Z,32.34
2022-08-12T09:08:46.472Z,33.16
2022-08-12T09:10:02.762Z,32.01
2022-08-12T09:10:45.830Z,31.68
2022-08-12T09:12:10.603Z,31.38
2022-08-12T09:12:45.415Z,31.56
2022-08-12T09:14:12.558Z,31.56
2022-08-12T09:16:45.412Z,31.58
2022-08-12T09:17:44.381Z,31.46
2022-08-12T09:18:44.399Z,32.09
2022-08-12T09:19:44.363Z,32.00
2022-08-12T09:20:44.365Z,31.71
2022-08-12T09:21:54.600Z,31.53
2022-08-12T09:22:49.063Z,31.67
2022-08-12T09:23:57.243Z,31.07
2022-08-12T09:24:45.327Z,31.37
2022-08-12T09:25:44.332Z,30.87
2022-08-12T09:30:10.971Z,30.54
2022-08-12T09:30:45.296Z,31.02
2022-08-12T09:32:07.856Z,31.48
2022-08-12T09:33:01.498Z,31.07
2022-08-12T09:34:25.212Z,30.40
2022-08-12T09:34:50.818Z,30.24
2022-08-12T09:35:46.218Z,30.57
2022-08-12T09:37:00.742Z,30.59
2022-08-12T09:37:58.241Z,30.62
2022-08-12T09:39:00.012Z,30.97
2022-08-12T09:40:01.828Z,31.49
2022-08-12T09:40:57.090Z,31.44
2022-08-12T09:42:08.449Z,31.77
2022-08-12T09:43:04.816Z,31.40
2022-08-12T09:43:53.339Z,30.66
2022-08-12T09:44:45.230Z,30.75
2022-08-12T09:46:06.559Z,30.88
2022-08-12T09:46:45.328Z,31.41
2022-08-12T09:47:45.177Z,31.67
2022-08-12T09:48:56.470Z,31.59
2022-08-12T09:49:45.153Z,31.63
2022-08-12T09:50:50.640Z,31.81
2022-08-12T09:51:45.157Z,31.41
2022-08-12T09:52:44.325Z,31.22
2022-08-12T09:53:44.185Z,30.34
2022-08-12T09:54:44.130Z,30.63
2022-08-12T09:56:56.914Z,29.94
2022-08-12T09:57:01.894Z,30.31
2022-08-12T09:58:46.234Z,30.70
2022-08-12T09:59:00.961Z,31.71
2022-08-12T10:00:15.014Z,31.80
2022-08-12T10:00:52.030Z,31.33
2022-08-12T10:02:43.021Z,31.21
2022-08-12T10:02:50.071Z,30.97
2022-08-12T10:04:02.968Z,30.63
2022-08-12T10:04:51.587Z,30.91
2022-08-12T10:06:19.886Z,31.25
2022-08-12T10:06:54.201Z,31.82
2022-08-12T10:07:45.022Z,32.25
2022-08-12T10:08:44.017Z,32.13
2022-08-12T10:09:58.432Z,31.49
2022-08-12T10:10:45.028Z,31.34
2022-08-12T10:12:10.148Z,30.70
2022-08-12T10:13:06.663Z,30.69
2022-08-12T10:13:45.016Z,30.74
2022-08-12T10:14:49.986Z,30.25
2022-08-12T10:16:02.773Z,30.47
2022-08-12T10:16:44.983Z,31.16
2022-08-12T10:18:05.948Z,31.82
2022-08-12T10:18:51.226Z,32.34
2022-08-12T10:19:51.618Z,32.34
2022-08-12T10:20:44.944Z,32.72
2022-08-12T10:21:43.921Z,32.99
2022-08-12T10:22:43.931Z,32.80
2022-08-12T10:23:45.933Z,31.87
2022-08-12T10:24:43.947Z,31.43
2022-08-12T10:26:34.686Z,32.12
2022-08-12T10:26:45.027Z,33.36
2022-08-12T10:28:03.636Z,33.90
2022-08-12T10:29:01.804Z,34.33
2022-08-12T10:30:03.908Z,34.12
2022-08-12T10:30:58.099Z,32.98
2022-08-12T10:32:19.458Z,32.11
2022-08-12T10:32:56.179Z,31.91
2022-08-12T10:34:04.903Z,32.13
2022-08-12T10:34:53.128Z,32.00
2022-08-12T10:35:44.814Z,32.40
2022-08-12T10:36:43.805Z,31.97
2022-08-12T10:38:37.134Z,31.49
2022-08-12T10:38:44.803Z,31.55
2022-08-12T10:40:00.801Z,31.60
2022-08-12T10:40:44.830Z,31.18
2022-08-12T10:41:58.310Z,30.89
2022-08-12T10:42:44.924Z,31.02
2022-08-12T10:43:55.922Z,31.70
2022-08-12T10:44:44.770Z,31.87
2022-08-12T10:45:43.761Z,31.67
2022-08-12T10:46:43.744Z,31.41
2022-08-12T10:48:07.795Z,31.12
2022-08-12T10:48:44.764Z,31.30
2022-08-12T10:50:02.381Z,31.31
2022-08-12T10:51:00.347Z,31.97
2022-08-12T10:52:03.180Z,32.16
2022-08-12T10:52:45.094Z,31.41
2022-08-12T10:53:46.316Z,31.59
2022-08-12T10:54:43.691Z,31.78
2022-08-12T10:55:44.696Z,30.80
2022-08-12T10:56:43.673Z,30.82
2022-08-12T10:58:13.423Z,31.24
2022-08-12T10:58:46.327Z,31.49
2022-08-12T11:00:30.697Z,31.38
2022-08-12T11:00:55.039Z,31.41
2022-08-12T11:04:17.079Z,31.62
2022-08-12T11:04:19.204Z,32.43
2022-08-12T11:04:25.226Z,32.68
2022-08-12T11:04:49.086Z,32.43
2022-08-12T11:07:05.820Z,31.78
2022-08-12T11:07:07.544Z,32.03
2022-08-12T11:08:37.583Z,31.33
2022-08-12T11:08:46.492Z,31.71
2022-08-12T11:10:00.134Z,32.09
2022-08-12T11:10:45.765Z,31.80
2022-08-12T11:12:35.370Z,31.77
2022-08-12T11:12:58.496Z,31.36
2022-08-12T11:13:48.324Z,31.53
2022-08-12T11:14:49.438Z,31.94
2022-08-12T11:16:19.419Z,31.91
2022-08-12T11:17:06.504Z,31.00
2022-08-12T11:17:53.712Z,30.81
2022-08-12T11:18:44.502Z,31.11
2022-08-12T11:19:43.534Z,31.77
2022-08-12T11:20:43.501Z,31.75
2022-08-12T11:21:57.794Z,32.37
2022-08-12T11:22:57.759Z,32.49
2022-08-12T11:23:44.469Z,32.71
2022-08-12T11:24:51.685Z,33.62
2022-08-12T11:25:57.972Z,33.02
2022-08-12T11:26:44.476Z,32.08
2022-08-12T11:27:43.706Z,32.31
2022-08-12T11:28:43.455Z,32.25
2022-08-12T11:30:02.046Z,32.25
2022-08-12T11:30:44.432Z,32.31
2022-08-12T11:32:01.970Z,33.21
2022-08-12T11:32:44.413Z,32.28
2022-08-12T11:34:05.475Z,32.75
2022-08-12T11:34:53.194Z,33.08
2022-08-12T11:35:44.395Z,33.06
2022-08-12T11:36:44.354Z,33.70
2022-08-12T11:37:55.875Z,32.75
2022-08-12T11:38:50.570Z,32.57
2022-08-12T11:40:44.322Z,33.31
2022-08-12T11:41:43.321Z,33.76
2022-08-12T11:42:46.943Z,34.08
2022-08-12T11:43:50.641Z,34.45
2022-08-12T11:44:44.514Z,33.98
2022-08-12T11:45:46.910Z,33.31
2022-08-12T11:46:43.291Z,32.65
2022-08-12T11:47:43.289Z,32.52
2022-08-12T11:48:52.387Z,32.52
2022-08-12T11:49:45.756Z,33.04
2022-08-12T11:50:44.336Z,32.45
2022-08-12T11:51:43.281Z,32.67
2022-08-12T11:52:56.848Z,32.61
2022-08-12T11:53:57.284Z,32.50
2022-08-12T11:54:51.142Z,32.55
2022-08-12T11:55:46.675Z,32.20
2022-08-12T11:56:59.042Z,32.28
2022-08-12T11:58:07.242Z,32.16
2022-08-12T12:01:59.150Z,33.61
2022-08-12T12:02:01.176Z,31.89
2022-08-12T12:02:44.254Z,33.95
2022-08-12T12:03:46.505Z,33.17
2022-08-12T12:04:43.211Z,33.63
2022-08-12T12:05:45.815Z,32.62
2022-08-12T12:06:43.161Z,32.34
2022-08-12T12:08:37.755Z,32.15
2022-08-12T12:08:49.780Z,32.40
2022-08-12T12:09:52.406Z,33.40
2022-08-12T12:10:44.138Z,34.18
2022-08-12T12:11:48.844Z,34.47
2022-08-12T12:12:49.809Z,34.33
2022-08-12T12:14:06.518Z,33.90
2022-08-12T12:14:44.129Z,34.21
2022-08-12T12:15:44.103Z,33.95
2022-08-12T12:16:48.303Z,33.52
2022-08-12T12:17:44.087Z,33.81
2022-08-12T12:18:43.080Z,32.79
2022-08-12T12:19:46.195Z,32.31
2022-08-12T12:20:43.068Z,31.91
2022-08-12T12:21:47.258Z,31.62
2022-08-12T12:22:44.117Z,31.68
2022-08-12T12:23:47.057Z,31.80
2022-08-12T12:24:43.074Z,31.60
2022-08-12T12:25:59.574Z,32.25
2022-08-12T12:26:44.023Z,32.75
2022-08-12T12:28:04.477Z,32.79
2022-08-12T12:28:54.422Z,32.64
2022-08-12T12:30:13.718Z,32.49
2022-08-12T12:30:54.689Z,31.62
2022-08-12T12:32:09.411Z,32.12
2022-08-12T12:32:53.305Z,31.94
2022-08-12T12:33:57.515Z,32.34
2022-08-12T12:35:13.467Z,32.24
2022-08-12T12:36:18.385Z,31.90
2022-08-12T12:36:43.959Z,32.52
2022-08-12T12:38:03.443Z,32.52
2022-08-12T12:38:44.936Z,32.52
2022-08-12T12:39:54.997Z,32.43
2022-08-12T12:40:44.175Z,31.89
2022-08-12T12:42:44.373Z,31.81
2022-08-12T12:42:57.941Z,31.80
2022-08-12T12:44:04.127Z,31.43
2022-08-12T12:44:53.542Z,30.94
2022-08-12T12:45:44.293Z,31.41
2022-08-12T12:46:44.644Z,31.44
2022-08-12T12:47:42.904Z,31.89
2022-08-12T12:48:44.762Z,31.93
2022-08-12T12:49:43.896Z,32.30
2022-08-12T12:50:45.726Z,32.68
2022-08-12T12:51:56.383Z,32.77
2022-08-12T12:52:43.849Z,32.64
2022-08-12T12:54:08.747Z,32.90
2022-08-12T12:54:43.864Z,32.93
2022-08-12T12:55:42.822Z,32.45
2022-08-12T12:56:43.164Z,32.34
2022-08-12T12:58:00.612Z,31.67
2022-08-12T12:58:43.937Z,31.56
2022-08-12T12:59:56.823Z,31.77
2022-08-12T13:00:51.097Z,31.18